sensor_id;sensor_type;location;lat;lon;timestamp;P1;durP1;ratioP1;P2;durP2;ratioP2
22673;SDS011;11504;43.334;21.918;2023-09-19T00:02:38;12.0;;;11.0;;
22673;SDS011;11504;43.334;21.918;2023-09-19T00:07:15;12.0;;;11.0;;
22673;SDS011;11504;43.334;21.918;2023-09-19T00:11:51;12.0;;;11.0;;
22673;SDS011;11504;43.334;21.918;2023-09-19T00:16:27;12.0;;;11.0;;
22673;SDS011;11504;43.334;21.918;2023-09-19T00:21:03;11.0;;;10.0;;
22673;SDS011;11504;43.334;21.918;2023-09-19T00:25:39;11.0;;;10.0;;
22673;SDS011;11504;43.334;21.918;2023-09-19T00:30:16;10.0;;;9.0;;
22673;SDS011;11504;43.334;21.918;2023-09-19T00:34:53;10.0;;;9.0;;
22673;SDS011;11504;43.334;21.918;2023-09-19T00:39:29;10.0;;;9.0;;
22673;SDS011;11504;43.334;21.918;2023-09-19T00:44:06;10.0;;;9.0;;
22673;SDS011;11504;43.334;21.918;2023-09-19T00:48:43;10.0;;;9.0;;
22673;SDS011;11504;43.334;21.918;2023-09-19T00:53:21;10.0;;;9.0;;
22673;SDS011;11504;43.334;21.918;2023-09-19T00:58:01;10.0;;;10.0;;
22673;SDS011;11504;43.334;21.918;2023-09-19T01:02:39;10.0;;;10.0;;
22673;SDS011;11504;43.334;21.918;2023-09-19T01:07:18;11.0;;;10.0;;
22673;SDS011;11504;43.334;21.918;2023-09-19T01:11:57;11.0;;;10.0;;
22673;SDS011;11504;43.334;21.918;2023-09-19T01:16:49;11.0;;;10.0;;
22673;SDS011;11504;43.334;21.918;2023-09-19T01:22:00;10.0;;;10.0;;
22673;SDS011;11504;43.334;21.918;2023-09-19T01:27:36;10.0;;;9.0;;
22673;SDS011;11504;43.334;21.918;2023-09-19T01:33:09;10.0;;;9.0;;
22673;SDS011;11504;43.334;21.918;2023-09-19T01:37:46;10.0;;;9.0;;
22673;SDS011;11504;43.334;21.918;2023-09-19T01:42:24;10.0;;;9.0;;
22673;SDS011;11504;43.334;21.918;2023-09-19T01:47:31;9.0;;;9.0;;
22673;SDS011;11504;43.334;21.918;2023-09-19T01:52:28;9.0;;;9.0;;
22673;SDS011;11504;43.334;21.918;2023-09-19T01:57:48;8.0;;;8.0;;
22673;SDS011;11504;43.334;21.918;2023-09-19T02:03:05;8.0;;;8.0;;
22673;SDS011;11504;43.334;21.918;2023-09-19T02:07:50;8.0;;;8.0;;
22673;SDS011;11504;43.334;21.918;2023-09-19T02:12:29;8.0;;;8.0;;
22673;SDS011;11504;43.334;21.918;2023-09-19T02:17:06;8.0;;;8.0;;
22673;SDS011;11504;43.334;21.918;2023-09-19T02:21:42;8.0;;;8.0;;
22673;SDS011;11504;43.334;21.918;2023-09-19T02:26:19;8.0;;;8.0;;
22673;SDS011;11504;43.334;21.918;2023-09-19T02:30:55;8.0;;;8.0;;
22673;SDS011;11504;43.334;21.918;2023-09-19T02:35:33;8.0;;;8.0;;
22673;SDS011;11504;43.334;21.918;2023-09-19T02:40:09;9.0;;;9.0;;
22673;SDS011;11504;43.334;21.918;2023-09-19T02:44:47;9.0;;;9.0;;
22673;SDS011;11504;43.334;21.918;2023-09-19T02:49:23;10.0;;;10.0;;
22673;SDS011;11504;43.334;21.918;2023-09-19T02:54:00;10.0;;;10.0;;
22673;SDS011;11504;43.334;21.918;2023-09-19T02:58:36;10.0;;;10.0;;
22673;SDS011;11504;43.334;21.918;2023-09-19T03:03:13;10.0;;;10.0;;
22673;SDS011;11504;43.334;21.918;2023-09-19T03:07:49;10.0;;;10.0;;
22673;SDS011;11504;43.334;21.918;2023-09-19T03:12:27;10.0;;;10.0;;
22673;SDS011;11504;43.334;21.918;2023-09-19T03:17:03;10.0;;;10.0;;
22673;SDS011;11504;43.334;21.918;2023-09-19T03:21:40;10.0;;;10.0;;
22673;SDS011;11504;43.334;21.918;2023-09-19T03:26:16;10.0;;;10.0;;
22673;SDS011;11504;43.334;21.918;2023-09-19T03:31:00;11.0;;;11.0;;
22673;SDS011;11504;43.334;21.918;2023-09-19T03:35:42;11.0;;;11.0;;
22673;SDS011;11504;43.334;21.918;2023-09-19T03:40:29;11.0;;;10.0;;
22673;SDS011;11504;43.334;21.918;2023-09-19T03:45:06;11.0;;;10.0;;
22673;SDS011;11504;43.334;21.918;2023-09-19T03:49:46;11.0;;;10.0;;
22673;SDS011;11504;43.334;21.918;2023-09-19T03:54:23;11.0;;;10.0;;
22673;SDS011;11504;43.334;21.918;2023-09-19T03:58:59;10.0;;;10.0;;
22673;SDS011;11504;43.334;21.918;2023-09-19T04:03:36;10.0;;;10.0;;
22673;SDS011;11504;43.334;21.918;2023-09-19T04:08:12;10.0;;;10.0;;
22673;SDS011;11504;43.334;21.918;2023-09-19T04:12:50;10.0;;;10.0;;
22673;SDS011;11504;43.334;21.918;2023-09-19T04:17:30;10.0;;;10.0;;
22673;SDS011;11504;43.334;21.918;2023-09-19T04:22:07;10.0;;;10.0;;
22673;SDS011;11504;43.334;21.918;2023-09-19T04:26:43;10.0;;;10.0;;
22673;SDS011;11504;43.334;21.918;2023-09-19T04:31:21;10.0;;;10.0;;
22673;SDS011;11504;43.334;21.918;2023-09-19T04:35:57;10.0;;;10.0;;
22673;SDS011;11504;43.334;21.918;2023-09-19T04:40:34;10.0;;;10.0;;
22673;SDS011;11504;43.334;21.918;2023-09-19T04:45:11;10.0;;;10.0;;
22673;SDS011;11504;43.334;21.918;2023-09-19T04:49:48;10.0;;;9.0;;
22673;SDS011;11504;43.334;21.918;2023-09-19T04:54:25;10.0;;;9.0;;
22673;SDS011;11504;43.334;21.918;2023-09-19T04:59:01;10.0;;;10.0;;
22673;SDS011;11504;43.334;21.918;2023-09-19T05:03:38;10.0;;;10.0;;
22673;SDS011;11504;43.334;21.918;2023-09-19T05:08:14;11.0;;;11.0;;
22673;SDS011;11504;43.334;21.918;2023-09-19T05:12:52;11.0;;;11.0;;
22673;SDS011;11504;43.334;21.918;2023-09-19T05:17:30;10.0;;;10.0;;
22673;SDS011;11504;43.334;21.918;2023-09-19T05:22:06;10.0;;;10.0;;
22673;SDS011;11504;43.334;21.918;2023-09-19T05:26:42;10.0;;;10.0;;
22673;SDS011;11504;43.334;21.918;2023-09-19T05:31:19;10.0;;;10.0;;
22673;SDS011;11504;43.334;21.918;2023-09-19T05:35:55;10.0;;;10.0;;
22673;SDS011;11504;43.334;21.918;2023-09-19T05:40:31;10.0;;;10.0;;
22673;SDS011;11504;43.334;21.918;2023-09-19T05:45:07;10.0;;;10.0;;
22673;SDS011;11504;43.334;21.918;2023-09-19T05:49:45;10.0;;;10.0;;
22673;SDS011;11504;43.334;21.918;2023-09-19T05:54:21;10.0;;;10.0;;
22673;SDS011;11504;43.334;21.918;2023-09-19T05:58:58;10.0;;;10.0;;
22673;SDS011;11504;43.334;21.918;2023-09-19T06:03:34;10.0;;;10.0;;
22673;SDS011;11504;43.334;21.918;2023-09-19T06:08:11;10.0;;;10.0;;
22673;SDS011;11504;43.334;21.918;2023-09-19T06:12:48;10.0;;;10.0;;
22673;SDS011;11504;43.334;21.918;2023-09-19T06:17:25;10.0;;;10.0;;
22673;SDS011;11504;43.334;21.918;2023-09-19T06:22:02;10.0;;;9.0;;
22673;SDS011;11504;43.334;21.918;2023-09-19T06:26:39;10.0;;;9.0;;
22673;SDS011;11504;43.334;21.918;2023-09-19T06:31:16;9.0;;;8.0;;
22673;SDS011;11504;43.334;21.918;2023-09-19T06:35:52;9.0;;;8.0;;
22673;SDS011;11504;43.334;21.918;2023-09-19T06:40:29;8.0;;;8.0;;
22673;SDS011;11504;43.334;21.918;2023-09-19T06:45:07;8.0;;;8.0;;
22673;SDS011;11504;43.334;21.918;2023-09-19T06:49:45;7.0;;;7.0;;
22673;SDS011;11504;43.334;21.918;2023-09-19T06:54:22;7.0;;;7.0;;
22673;SDS011;11504;43.334;21.918;2023-09-19T06:58:58;8.0;;;8.0;;
22673;SDS011;11504;43.334;21.918;2023-09-19T07:03:34;8.0;;;8.0;;
22673;SDS011;11504;43.334;21.918;2023-09-19T07:08:11;8.0;;;8.0;;
22673;SDS011;11504;43.334;21.918;2023-09-19T07:12:47;8.0;;;8.0;;
22673;SDS011;11504;43.334;21.918;2023-09-19T07:17:33;8.0;;;8.0;;
22673;SDS011;11504;43.334;21.918;2023-09-19T07:22:10;8.0;;;8.0;;
22673;SDS011;11504;43.334;21.918;2023-09-19T07:26:47;8.0;;;8.0;;
22673;SDS011;11504;43.334;21.918;2023-09-19T07:31:23;9.0;;;9.0;;
22673;SDS011;11504;43.334;21.918;2023-09-19T07:35:59;9.0;;;9.0;;
22673;SDS011;11504;43.334;21.918;2023-09-19T07:40:36;10.0;;;10.0;;
22673;SDS011;11504;43.334;21.918;2023-09-19T07:45:12;10.0;;;10.0;;
22673;SDS011;11504;43.334;21.918;2023-09-19T07:49:49;10.0;;;10.0;;
22673;SDS011;11504;43.334;21.918;2023-09-19T07:54:26;10.0;;;10.0;;
22673;SDS011;11504;43.334;21.918;2023-09-19T07:59:03;10.0;;;10.0;;
22673;SDS011;11504;43.334;21.918;2023-09-19T08:03:39;10.0;;;10.0;;
22673;SDS011;11504;43.334;21.918;2023-09-19T08:08:16;11.0;;;10.0;;
22673;SDS011;11504;43.334;21.918;2023-09-19T08:12:52;11.0;;;10.0;;
22673;SDS011;11504;43.334;21.918;2023-09-19T08:17:28;11.0;;;10.0;;
22673;SDS011;11504;43.334;21.918;2023-09-19T08:22:09;12.0;;;11.0;;
22673;SDS011;11504;43.334;21.918;2023-09-19T08:26:46;12.0;;;11.0;;
22673;SDS011;11504;43.334;21.918;2023-09-19T08:31:22;13.0;;;12.0;;
22673;SDS011;11504;43.334;21.918;2023-09-19T08:35:59;13.0;;;12.0;;
22673;SDS011;11504;43.334;21.918;2023-09-19T08:40:36;12.0;;;11.0;;
22673;SDS011;11504;43.334;21.918;2023-09-19T08:45:14;12.0;;;11.0;;
22673;SDS011;11504;43.334;21.918;2023-09-19T08:49:53;10.0;;;10.0;;
22673;SDS011;11504;43.334;21.918;2023-09-19T08:55:03;10.0;;;10.0;;
22673;SDS011;11504;43.334;21.918;2023-09-19T08:59:50;10.0;;;10.0;;
22673;SDS011;11504;43.334;21.918;2023-09-19T09:04:30;10.0;;;10.0;;
22673;SDS011;11504;43.334;21.918;2023-09-19T09:09:10;9.0;;;9.0;;
22673;SDS011;11504;43.334;21.918;2023-09-19T09:13:48;9.0;;;9.0;;
22673;SDS011;11504;43.334;21.918;2023-09-19T09:18:24;10.0;;;9.0;;
22673;SDS011;11504;43.334;21.918;2023-09-19T09:23:01;10.0;;;9.0;;
22673;SDS011;11504;43.334;21.918;2023-09-19T09:27:38;10.0;;;9.0;;
22673;SDS011;11504;43.334;21.918;2023-09-19T09:32:17;10.0;;;9.0;;
22673;SDS011;11504;43.334;21.918;2023-09-19T09:37:02;10.0;;;9.0;;
22673;SDS011;11504;43.334;21.918;2023-09-19T09:41:39;10.0;;;9.0;;
22673;SDS011;11504;43.334;21.918;2023-09-19T09:46:17;10.0;;;9.0;;
22673;SDS011;11504;43.334;21.918;2023-09-19T09:50:58;10.0;;;9.0;;
22673;SDS011;11504;43.334;21.918;2023-09-19T09:55:56;10.0;;;9.0;;
22673;SDS011;11504;43.334;21.918;2023-09-19T10:00:52;10.0;;;9.0;;
22673;SDS011;11504;43.334;21.918;2023-09-19T10:05:32;10.0;;;9.0;;
22673;SDS011;11504;43.334;21.918;2023-09-19T10:10:09;9.0;;;9.0;;
22673;SDS011;11504;43.334;21.918;2023-09-19T10:14:47;9.0;;;9.0;;
22673;SDS011;11504;43.334;21.918;2023-09-19T10:19:28;10.0;;;10.0;;
22673;SDS011;11504;43.334;21.918;2023-09-19T10:24:32;10.0;;;10.0;;
22673;SDS011;11504;43.334;21.918;2023-09-19T10:29:15;11.0;;;11.0;;
22673;SDS011;11504;43.334;21.918;2023-09-19T10:33:58;11.0;;;11.0;;
22673;SDS011;11504;43.334;21.918;2023-09-19T10:38:44;10.0;;;10.0;;
22673;SDS011;11504;43.334;21.918;2023-09-19T10:43:31;10.0;;;10.0;;
22673;SDS011;11504;43.334;21.918;2023-09-19T10:48:09;9.0;;;9.0;;
22673;SDS011;11504;43.334;21.918;2023-09-19T10:52:46;9.0;;;9.0;;
22673;SDS011;11504;43.334;21.918;2023-09-19T10:57:28;9.0;;;9.0;;
22673;SDS011;11504;43.334;21.918;2023-09-19T11:02:15;10.0;;;10.0;;
22673;SDS011;11504;43.334;21.918;2023-09-19T11:07:01;10.0;;;10.0;;
22673;SDS011;11504;43.334;21.918;2023-09-19T11:11:44;10.0;;;10.0;;
22673;SDS011;11504;43.334;21.918;2023-09-19T11:16:27;10.0;;;10.0;;
22673;SDS011;11504;43.334;21.918;2023-09-19T11:21:38;11.0;;;10.0;;
22673;SDS011;11504;43.334;21.918;2023-09-19T11:26:44;11.0;;;10.0;;
22673;SDS011;11504;43.334;21.918;2023-09-19T11:31:41;12.0;;;11.0;;
22673;SDS011;11504;43.334;21.918;2023-09-19T11:36:28;12.0;;;11.0;;
22673;SDS011;11504;43.334;21.918;2023-09-19T11:41:43;12.0;;;10.0;;
22673;SDS011;11504;43.334;21.918;2023-09-19T11:46:19;12.0;;;10.0;;
22673;SDS011;11504;43.334;21.918;2023-09-19T11:50:57;11.0;;;10.0;;
22673;SDS011;11504;43.334;21.918;2023-09-19T11:55:35;11.0;;;10.0;;
22673;SDS011;11504;43.334;21.918;2023-09-19T12:00:16;12.0;;;10.0;;
22673;SDS011;11504;43.334;21.918;2023-09-19T12:04:53;12.0;;;10.0;;
22673;SDS011;11504;43.334;21.918;2023-09-19T12:09:31;12.0;;;11.0;;
22673;SDS011;11504;43.334;21.918;2023-09-19T12:14:08;12.0;;;11.0;;
22673;SDS011;11504;43.334;21.918;2023-09-19T12:18:45;12.0;;;11.0;;
22673;SDS011;11504;43.334;21.918;2023-09-19T12:23:22;12.0;;;11.0;;
22673;SDS011;11504;43.334;21.918;2023-09-19T12:28:00;12.0;;;11.0;;
22673;SDS011;11504;43.334;21.918;2023-09-19T12:32:36;12.0;;;11.0;;
22673;SDS011;11504;43.334;21.918;2023-09-19T12:37:14;12.0;;;11.0;;
22673;SDS011;11504;43.334;21.918;2023-09-19T12:41:52;12.0;;;12.0;;
22673;SDS011;11504;43.334;21.918;2023-09-19T12:46:31;12.0;;;12.0;;
22673;SDS011;11504;43.334;21.918;2023-09-19T12:51:08;12.0;;;12.0;;
22673;SDS011;11504;43.334;21.918;2023-09-19T12:55:50;12.0;;;12.0;;
22673;SDS011;11504;43.334;21.918;2023-09-19T13:00:37;12.0;;;12.0;;
22673;SDS011;11504;43.334;21.918;2023-09-19T13:05:21;12.0;;;12.0;;
22673;SDS011;11504;43.334;21.918;2023-09-19T13:10:29;12.0;;;12.0;;
22673;SDS011;11504;43.334;21.918;2023-09-19T13:15:07;12.0;;;12.0;;
22673;SDS011;11504;43.334;21.918;2023-09-19T13:19:47;12.0;;;12.0;;
22673;SDS011;11504;43.334;21.918;2023-09-19T13:24:27;12.0;;;12.0;;
22673;SDS011;11504;43.334;21.918;2023-09-19T13:29:04;12.0;;;11.0;;
22673;SDS011;11504;43.334;21.918;2023-09-19T13:33:42;12.0;;;11.0;;
22673;SDS011;11504;43.334;21.918;2023-09-19T13:38:22;12.0;;;11.0;;
22673;SDS011;11504;43.334;21.918;2023-09-19T13:42:58;12.0;;;11.0;;
22673;SDS011;11504;43.334;21.918;2023-09-19T13:47:35;12.0;;;11.0;;
22673;SDS011;11504;43.334;21.918;2023-09-19T13:52:11;11.0;;;11.0;;
22673;SDS011;11504;43.334;21.918;2023-09-19T13:56:47;11.0;;;11.0;;
22673;SDS011;11504;43.334;21.918;2023-09-19T14:01:23;12.0;;;12.0;;
22673;SDS011;11504;43.334;21.918;2023-09-19T14:06:00;12.0;;;12.0;;
22673;SDS011;11504;43.334;21.918;2023-09-19T14:10:36;12.0;;;12.0;;
22673;SDS011;11504;43.334;21.918;2023-09-19T14:15:13;12.0;;;12.0;;
22673;SDS011;11504;43.334;21.918;2023-09-19T14:19:50;12.0;;;12.0;;
22673;SDS011;11504;43.334;21.918;2023-09-19T14:24:26;12.0;;;12.0;;
22673;SDS011;11504;43.334;21.918;2023-09-19T14:29:03;12.0;;;11.0;;
22673;SDS011;11504;43.334;21.918;2023-09-19T14:33:40;12.0;;;11.0;;
22673;SDS011;11504;43.334;21.918;2023-09-19T14:38:17;12.0;;;12.0;;
22673;SDS011;11504;43.334;21.918;2023-09-19T14:42:53;12.0;;;12.0;;
22673;SDS011;11504;43.334;21.918;2023-09-19T14:47:30;12.0;;;12.0;;
22673;SDS011;11504;43.334;21.918;2023-09-19T14:52:07;12.0;;;12.0;;
22673;SDS011;11504;43.334;21.918;2023-09-19T14:56:47;12.0;;;12.0;;
22673;SDS011;11504;43.334;21.918;2023-09-19T15:01:24;12.0;;;12.0;;
22673;SDS011;11504;43.334;21.918;2023-09-19T15:06:01;12.0;;;12.0;;
22673;SDS011;11504;43.334;21.918;2023-09-19T15:10:49;12.0;;;12.0;;
22673;SDS011;11504;43.334;21.918;2023-09-19T15:15:26;12.0;;;12.0;;
22673;SDS011;11504;43.334;21.918;2023-09-19T15:20:03;12.0;;;12.0;;
22673;SDS011;11504;43.334;21.918;2023-09-19T15:24:45;12.0;;;12.0;;
22673;SDS011;11504;43.334;21.918;2023-09-19T15:29:22;12.0;;;12.0;;
22673;SDS011;11504;43.334;21.918;2023-09-19T15:33:59;12.0;;;12.0;;
22673;SDS011;11504;43.334;21.918;2023-09-19T15:39:07;13.0;;;13.0;;
22673;SDS011;11504;43.334;21.918;2023-09-19T15:43:44;13.0;;;13.0;;
22673;SDS011;11504;43.334;21.918;2023-09-19T15:48:21;14.0;;;14.0;;
22673;SDS011;11504;43.334;21.918;2023-09-19T15:52:58;14.0;;;14.0;;
22673;SDS011;11504;43.334;21.918;2023-09-19T15:57:35;14.0;;;14.0;;
22673;SDS011;11504;43.334;21.918;2023-09-19T16:02:14;14.0;;;14.0;;
22673;SDS011;11504;43.334;21.918;2023-09-19T16:06:50;14.0;;;14.0;;
22673;SDS011;11504;43.334;21.918;2023-09-19T16:11:27;14.0;;;13.0;;
22673;SDS011;11504;43.334;21.918;2023-09-19T16:16:03;14.0;;;13.0;;
22673;SDS011;11504;43.334;21.918;2023-09-19T16:20:40;14.0;;;12.0;;
22673;SDS011;11504;43.334;21.918;2023-09-19T16:25:16;14.0;;;12.0;;
22673;SDS011;11504;43.334;21.918;2023-09-19T16:29:52;13.0;;;12.0;;
22673;SDS011;11504;43.334;21.918;2023-09-19T16:34:29;13.0;;;12.0;;
22673;SDS011;11504;43.334;21.918;2023-09-19T16:39:05;13.0;;;12.0;;
22673;SDS011;11504;43.334;21.918;2023-09-19T16:43:41;13.0;;;12.0;;
22673;SDS011;11504;43.334;21.918;2023-09-19T16:48:18;13.0;;;13.0;;
22673;SDS011;11504;43.334;21.918;2023-09-19T16:52:55;13.0;;;13.0;;
22673;SDS011;11504;43.334;21.918;2023-09-19T16:57:32;13.0;;;13.0;;
22673;SDS011;11504;43.334;21.918;2023-09-19T17:02:08;14.0;;;13.0;;
22673;SDS011;11504;43.334;21.918;2023-09-19T17:06:44;14.0;;;13.0;;
22673;SDS011;11504;43.334;21.918;2023-09-19T17:11:21;14.0;;;13.0;;
22673;SDS011;11504;43.334;21.918;2023-09-19T17:15:59;14.0;;;13.0;;
22673;SDS011;11504;43.334;21.918;2023-09-19T17:20:44;16.0;;;15.0;;
22673;SDS011;11504;43.334;21.918;2023-09-19T17:25:21;16.0;;;15.0;;
22673;SDS011;11504;43.334;21.918;2023-09-19T17:29:58;19.0;;;17.0;;
22673;SDS011;11504;43.334;21.918;2023-09-19T17:34:34;19.0;;;17.0;;
22673;SDS011;11504;43.334;21.918;2023-09-19T17:39:11;18.0;;;16.0;;
22673;SDS011;11504;43.334;21.918;2023-09-19T17:43:51;18.0;;;16.0;;
22673;SDS011;11504;43.334;21.918;2023-09-19T17:48:34;16.0;;;15.0;;
22673;SDS011;11504;43.334;21.918;2023-09-19T17:53:12;16.0;;;15.0;;
22673;SDS011;11504;43.334;21.918;2023-09-19T17:57:48;16.0;;;15.0;;
22673;SDS011;11504;43.334;21.918;2023-09-19T18:02:25;16.0;;;15.0;;
22673;SDS011;11504;43.334;21.918;2023-09-19T18:07:01;16.0;;;15.0;;
22673;SDS011;11504;43.334;21.918;2023-09-19T18:11:39;16.0;;;15.0;;
22673;SDS011;11504;43.334;21.918;2023-09-19T18:16:16;16.0;;;15.0;;
22673;SDS011;11504;43.334;21.918;2023-09-19T18:20:54;16.0;;;16.0;;
22673;SDS011;11504;43.334;21.918;2023-09-19T18:25:36;16.0;;;16.0;;
22673;SDS011;11504;43.334;21.918;2023-09-19T18:30:13;17.0;;;16.0;;
22673;SDS011;11504;43.334;21.918;2023-09-19T18:34:50;17.0;;;16.0;;
22673;SDS011;11504;43.334;21.918;2023-09-19T18:39:26;16.0;;;14.0;;
22673;SDS011;11504;43.334;21.918;2023-09-19T18:44:03;16.0;;;14.0;;
22673;SDS011;11504;43.334;21.918;2023-09-19T18:48:41;14.0;;;13.0;;
22673;SDS011;11504;43.334;21.918;2023-09-19T18:53:20;14.0;;;13.0;;
22673;SDS011;11504;43.334;21.918;2023-09-19T18:57:56;14.0;;;13.0;;
22673;SDS011;11504;43.334;21.918;2023-09-19T19:02:32;13.0;;;12.0;;
22673;SDS011;11504;43.334;21.918;2023-09-19T19:07:09;13.0;;;12.0;;
22673;SDS011;11504;43.334;21.918;2023-09-19T19:11:45;12.0;;;11.0;;
22673;SDS011;11504;43.334;21.918;2023-09-19T19:16:21;12.0;;;11.0;;
22673;SDS011;11504;43.334;21.918;2023-09-19T19:20:58;13.0;;;12.0;;
22673;SDS011;11504;43.334;21.918;2023-09-19T19:25:45;13.0;;;12.0;;
22673;SDS011;11504;43.334;21.918;2023-09-19T19:30:23;14.0;;;14.0;;
22673;SDS011;11504;43.334;21.918;2023-09-19T19:34:59;14.0;;;14.0;;
22673;SDS011;11504;43.334;21.918;2023-09-19T19:39:36;12.0;;;12.0;;
22673;SDS011;11504;43.334;21.918;2023-09-19T19:44:14;12.0;;;12.0;;
22673;SDS011;11504;43.334;21.918;2023-09-19T19:48:50;11.0;;;10.0;;
22673;SDS011;11504;43.334;21.918;2023-09-19T19:53:27;11.0;;;10.0;;
22673;SDS011;11504;43.334;21.918;2023-09-19T19:58:04;11.0;;;10.0;;
22673;SDS011;11504;43.334;21.918;2023-09-19T20:02:40;10.0;;;10.0;;
22673;SDS011;11504;43.334;21.918;2023-09-19T20:07:19;10.0;;;10.0;;
22673;SDS011;11504;43.334;21.918;2023-09-19T20:11:56;10.0;;;9.0;;
22673;SDS011;11504;43.334;21.918;2023-09-19T20:16:32;10.0;;;9.0;;
22673;SDS011;11504;43.334;21.918;2023-09-19T20:21:09;12.0;;;10.0;;
22673;SDS011;11504;43.334;21.918;2023-09-19T20:25:48;12.0;;;10.0;;
22673;SDS011;11504;43.334;21.918;2023-09-19T20:30:24;13.0;;;12.0;;
22673;SDS011;11504;43.334;21.918;2023-09-19T20:35:01;13.0;;;12.0;;
22673;SDS011;11504;43.334;21.918;2023-09-19T20:39:42;13.0;;;12.0;;
22673;SDS011;11504;43.334;21.918;2023-09-19T20:44:19;13.0;;;12.0;;
22673;SDS011;11504;43.334;21.918;2023-09-19T20:48:56;13.0;;;12.0;;
22673;SDS011;11504;43.334;21.918;2023-09-19T20:53:32;13.0;;;12.0;;
22673;SDS011;11504;43.334;21.918;2023-09-19T20:58:11;13.0;;;12.0;;
22673;SDS011;11504;43.334;21.918;2023-09-19T21:02:48;14.0;;;14.0;;
22673;SDS011;11504;43.334;21.918;2023-09-19T21:07:24;14.0;;;14.0;;
22673;SDS011;11504;43.334;21.918;2023-09-19T21:12:01;16.0;;;15.0;;
22673;SDS011;11504;43.334;21.918;2023-09-19T21:16:38;16.0;;;15.0;;
22673;SDS011;11504;43.334;21.918;2023-09-19T21:21:14;14.0;;;14.0;;
22673;SDS011;11504;43.334;21.918;2023-09-19T21:25:53;14.0;;;14.0;;
22673;SDS011;11504;43.334;21.918;2023-09-19T21:30:30;13.0;;;12.0;;
22673;SDS011;11504;43.334;21.918;2023-09-19T21:35:06;13.0;;;12.0;;
22673;SDS011;11504;43.334;21.918;2023-09-19T21:39:43;14.0;;;14.0;;
22673;SDS011;11504;43.334;21.918;2023-09-19T21:44:19;14.0;;;14.0;;
22673;SDS011;11504;43.334;21.918;2023-09-19T21:48:56;15.0;;;15.0;;
22673;SDS011;11504;43.334;21.918;2023-09-19T21:53:32;15.0;;;15.0;;
22673;SDS011;11504;43.334;21.918;2023-09-19T21:58:10;15.0;;;15.0;;
22673;SDS011;11504;43.334;21.918;2023-09-19T22:02:47;14.0;;;14.0;;
22673;SDS011;11504;43.334;21.918;2023-09-19T22:07:23;14.0;;;14.0;;
22673;SDS011;11504;43.334;21.918;2023-09-19T22:11:59;14.0;;;13.0;;
22673;SDS011;11504;43.334;21.918;2023-09-19T22:16:36;14.0;;;13.0;;
22673;SDS011;11504;43.334;21.918;2023-09-19T22:21:13;14.0;;;14.0;;
22673;SDS011;11504;43.334;21.918;2023-09-19T22:25:55;14.0;;;14.0;;
22673;SDS011;11504;43.334;21.918;2023-09-19T22:30:33;14.0;;;14.0;;
22673;SDS011;11504;43.334;21.918;2023-09-19T22:35:14;14.0;;;14.0;;
22673;SDS011;11504;43.334;21.918;2023-09-19T22:39:51;15.0;;;14.0;;
22673;SDS011;11504;43.334;21.918;2023-09-19T22:44:28;15.0;;;14.0;;
22673;SDS011;11504;43.334;21.918;2023-09-19T22:49:04;16.0;;;15.0;;
22673;SDS011;11504;43.334;21.918;2023-09-19T22:53:41;16.0;;;15.0;;
22673;SDS011;11504;43.334;21.918;2023-09-19T22:58:17;16.0;;;15.0;;
22673;SDS011;11504;43.334;21.918;2023-09-19T23:02:54;15.0;;;14.0;;
22673;SDS011;11504;43.334;21.918;2023-09-19T23:07:31;15.0;;;14.0;;
22673;SDS011;11504;43.334;21.918;2023-09-19T23:12:07;14.0;;;12.0;;
22673;SDS011;11504;43.334;21.918;2023-09-19T23:16:44;14.0;;;12.0;;
22673;SDS011;11504;43.334;21.918;2023-09-19T23:21:21;14.0;;;13.0;;
22673;SDS011;11504;43.334;21.918;2023-09-19T23:25:57;14.0;;;13.0;;
22673;SDS011;11504;43.334;21.918;2023-09-19T23:30:33;15.0;;;14.0;;
22673;SDS011;11504;43.334;21.918;2023-09-19T23:35:10;15.0;;;14.0;;
22673;SDS011;11504;43.334;21.918;2023-09-19T23:39:46;14.0;;;14.0;;
22673;SDS011;11504;43.334;21.918;2023-09-19T23:44:23;14.0;;;14.0;;
22673;SDS011;11504;43.334;21.918;2023-09-19T23:48:59;13.0;;;13.0;;
22673;SDS011;11504;43.334;21.918;2023-09-19T23:53:36;13.0;;;13.0;;
22673;SDS011;11504;43.334;21.918;2023-09-19T23:58:12;13.0;;;13.0;;
